createdAt,value
2018-11-07T00:00:05.692Z,0
2018-11-07T00:00:46.253Z,0
2018-11-07T00:01:26.807Z,0
2018-11-07T00:02:07.352Z,0
2018-11-07T00:02:48.012Z,0
2018-11-07T00:03:28.478Z,0
2018-11-07T00:04:09.047Z,0
2018-11-07T00:04:49.632Z,0
2018-11-07T00:05:30.184Z,0
2018-11-07T00:06:10.752Z,0
2018-11-07T00:06:51.326Z,0
2018-11-07T00:07:31.892Z,0
2018-11-07T00:08:12.598Z,0
2018-11-07T00:08:53.029Z,0
2018-11-07T00:09:33.603Z,0
2018-11-07T00:10:14.169Z,0
2018-11-07T00:10:54.725Z,0
2018-11-07T00:11:35.273Z,0
2018-11-07T00:12:15.884Z,0
2018-11-07T00:12:56.443Z,0
2018-11-07T00:13:37.050Z,0
2018-11-07T00:14:17.613Z,0
2018-11-07T00:14:58.165Z,0
2018-11-07T00:15:38.736Z,0
2018-11-07T00:16:19.289Z,0
2018-11-07T00:16:59.853Z,0
2018-11-07T00:17:40.412Z,0
2018-11-07T00:18:20.960Z,0
2018-11-07T00:19:01.516Z,0
2018-11-07T00:19:42.084Z,0
2018-11-07T00:20:22.647Z,0
2018-11-07T00:21:03.203Z,0
2018-11-07T00:21:43.781Z,0
2018-11-07T00:22:24.348Z,0
2018-11-07T00:23:04.917Z,0
2018-11-07T00:23:45.481Z,0
2018-11-07T00:24:26.039Z,0
2018-11-07T00:25:06.643Z,0
2018-11-07T00:25:47.203Z,0
2018-11-07T00:26:27.826Z,0
2018-11-07T00:27:08.325Z,0
2018-11-07T00:27:48.913Z,0
2018-11-07T00:28:29.476Z,0
2018-11-07T00:29:10.053Z,0
2018-11-07T00:29:50.615Z,0
2018-11-07T00:30:31.201Z,0
2018-11-07T00:31:11.800Z,0
2018-11-07T00:31:52.363Z,0
2018-11-07T00:32:32.941Z,0
2018-11-07T00:33:13.514Z,0
2018-11-07T00:33:54.089Z,0
2018-11-07T00:34:34.648Z,0
2018-11-07T00:35:15.280Z,0
2018-11-07T00:35:55.784Z,0
2018-11-07T00:36:36.339Z,0
2018-11-07T00:37:16.926Z,0
2018-11-07T00:37:57.459Z,0
2018-11-07T00:38:38.028Z,0
2018-11-07T00:39:18.583Z,0
2018-11-07T00:39:59.133Z,0
2018-11-07T00:40:39.692Z,0
2018-11-07T00:41:20.252Z,0
2018-11-07T00:42:00.834Z,0
2018-11-07T00:42:41.391Z,0
2018-11-07T00:43:21.988Z,0
2018-11-07T00:44:02.543Z,0
2018-11-07T00:44:43.144Z,0
2018-11-07T00:45:23.718Z,0
2018-11-07T00:46:04.285Z,0
2018-11-07T00:46:44.828Z,0
2018-11-07T00:47:25.419Z,0
2018-11-07T00:48:05.988Z,0
2018-11-07T00:48:46.543Z,0
2018-11-07T00:49:27.108Z,0
2018-11-07T00:50:07.680Z,0
2018-11-07T00:50:48.230Z,0
2018-11-07T00:51:28.789Z,0
2018-11-07T00:52:09.347Z,0
2018-11-07T00:52:49.936Z,0
2018-11-07T00:53:30.518Z,0
2018-11-07T00:54:11.092Z,0
2018-11-07T00:54:51.663Z,0
2018-11-07T00:55:32.215Z,0
2018-11-07T00:56:12.778Z,0
2018-11-07T00:56:53.345Z,0
2018-11-07T00:57:33.906Z,0
2018-11-07T00:58:14.677Z,0
2018-11-07T00:58:55.030Z,0
2018-11-07T00:59:35.614Z,0
2018-11-07T01:00:16.170Z,0
2018-11-07T01:00:56.739Z,0
2018-11-07T01:01:37.325Z,0
2018-11-07T01:02:17.898Z,0
2018-11-07T01:02:58.450Z,0
2018-11-07T01:03:39.025Z,0
2018-11-07T01:04:19.580Z,0
2018-11-07T01:05:00.138Z,0
2018-11-07T01:05:40.704Z,0
2018-11-07T01:06:21.310Z,0
2018-11-07T01:07:01.857Z,0
2018-11-07T01:07:42.427Z,0
2018-11-07T01:08:22.994Z,0
2018-11-07T01:09:03.545Z,0
2018-11-07T01:09:44.226Z,0
2018-11-07T01:10:24.671Z,0
2018-11-07T01:11:05.261Z,0
2018-11-07T01:11:45.820Z,0
2018-11-07T01:12:26.368Z,0
2018-11-07T01:13:06.934Z,0
2018-11-07T01:13:47.509Z,0
2018-11-07T01:14:28.089Z,0
2018-11-07T01:15:08.656Z,0
2018-11-07T01:15:49.206Z,0
2018-11-07T01:16:29.830Z,0
2018-11-07T01:17:10.333Z,0
2018-11-07T01:17:50.903Z,0
2018-11-07T01:18:31.454Z,0
2018-11-07T01:19:12.013Z,0
2018-11-07T01:19:52.574Z,0
2018-11-07T01:20:33.133Z,0
2018-11-07T01:21:13.714Z,0
2018-11-07T01:21:54.284Z,0
2018-11-07T01:22:34.825Z,0
2018-11-07T01:23:15.399Z,0
2018-11-07T01:23:55.941Z,0
2018-11-07T01:24:36.499Z,0
2018-11-07T01:25:17.091Z,0
2018-11-07T01:25:57.653Z,0
2018-11-07T01:26:38.218Z,0
2018-11-07T01:27:18.788Z,0
2018-11-07T01:27:59.364Z,0
2018-11-07T01:28:39.919Z,0
2018-11-07T01:29:20.472Z,0
2018-11-07T01:30:01.035Z,0
2018-11-07T01:30:41.588Z,0
2018-11-07T01:31:22.176Z,0
2018-11-07T01:32:02.726Z,0
2018-11-07T01:32:43.294Z,0
2018-11-07T01:33:23.868Z,0
2018-11-07T01:34:04.428Z,0
2018-11-07T01:34:45.015Z,0
2018-11-07T01:35:25.569Z,0
2018-11-07T01:36:06.130Z,0
2018-11-07T01:36:46.686Z,0
2018-11-07T01:37:27.251Z,0
2018-11-07T01:38:07.857Z,0
2018-11-07T01:38:48.392Z,0
2018-11-07T01:39:28.973Z,0
2018-11-07T01:40:09.541Z,0
2018-11-07T01:40:50.109Z,0
2018-11-07T01:41:30.694Z,0
2018-11-07T01:42:11.430Z,0
2018-11-07T01:42:51.838Z,0
2018-11-07T01:43:32.409Z,0
2018-11-07T01:44:12.969Z,0
2018-11-07T01:44:53.555Z,0
2018-11-07T01:45:34.126Z,0
2018-11-07T01:46:14.700Z,0
2018-11-07T01:46:55.266Z,0
2018-11-07T01:47:35.833Z,0
2018-11-07T01:48:16.399Z,0
2018-11-07T01:48:56.978Z,0
2018-11-07T01:49:37.549Z,0
2018-11-07T01:50:18.111Z,0
2018-11-07T01:50:58.678Z,0
2018-11-07T01:51:39.315Z,0
2018-11-07T01:52:20.644Z,0
2018-11-07T01:53:01.192Z,0
2018-11-07T01:53:41.777Z,0
2018-11-07T01:54:22.340Z,0
2018-11-07T01:55:02.922Z,0
2018-11-07T01:55:43.487Z,0
2018-11-07T01:56:24.039Z,0
2018-11-07T01:57:04.627Z,0
2018-11-07T01:57:45.202Z,0
2018-11-07T01:58:25.766Z,0
2018-11-07T01:59:06.320Z,0
2018-11-07T01:59:46.897Z,0
2018-11-07T02:00:27.449Z,0
2018-11-07T02:01:08.078Z,0
2018-11-07T02:01:48.639Z,0
2018-11-07T02:02:29.198Z,0
2018-11-07T02:03:09.756Z,0
2018-11-07T02:03:50.310Z,0
2018-11-07T02:04:30.868Z,0
2018-11-07T02:05:11.472Z,0
2018-11-07T02:05:52.011Z,0
2018-11-07T02:06:32.571Z,0
2018-11-07T02:07:13.125Z,0
2018-11-07T02:07:53.696Z,0
2018-11-07T02:08:34.260Z,0
2018-11-07T02:09:14.825Z,0
2018-11-07T02:09:55.391Z,0
2018-11-07T02:10:35.995Z,0
2018-11-07T02:11:16.574Z,0
2018-11-07T02:11:57.133Z,0
2018-11-07T02:12:37.703Z,0
2018-11-07T02:13:18.255Z,0
2018-11-07T02:13:58.831Z,0
2018-11-07T02:14:39.451Z,0
2018-11-07T02:15:20.007Z,0
2018-11-07T02:16:00.588Z,0
2018-11-07T02:16:41.162Z,0
2018-11-07T02:17:21.729Z,0
2018-11-07T02:18:02.304Z,0
2018-11-07T02:18:42.858Z,0
2018-11-07T02:19:23.418Z,0
2018-11-07T02:20:04.012Z,0
2018-11-07T02:20:44.569Z,0
2018-11-07T02:21:25.130Z,0
2018-11-07T02:22:05.694Z,0
2018-11-07T02:22:46.330Z,0
2018-11-07T02:23:26.888Z,0
2018-11-07T02:24:07.452Z,0
2018-11-07T02:24:48.005Z,0
2018-11-07T02:25:28.574Z,0
2018-11-07T02:26:09.139Z,0
2018-11-07T02:26:49.707Z,0
2018-11-07T02:27:30.291Z,0
2018-11-07T02:28:10.852Z,0
2018-11-07T02:28:51.418Z,0
2018-11-07T02:29:31.985Z,0
2018-11-07T02:30:12.554Z,0
2018-11-07T02:30:53.114Z,0
2018-11-07T02:31:33.722Z,0
2018-11-07T02:32:14.411Z,0
2018-11-07T02:32:54.979Z,0
2018-11-07T02:33:35.576Z,0
2018-11-07T02:34:16.132Z,0
2018-11-07T02:34:56.679Z,0
2018-11-07T02:35:37.257Z,0
2018-11-07T02:36:17.823Z,0
2018-11-07T02:36:58.402Z,0
2018-11-07T02:37:39.017Z,0
2018-11-07T02:38:19.595Z,0
2018-11-07T02:39:00.167Z,0
2018-11-07T02:39:40.715Z,0
2018-11-07T02:40:21.295Z,0
2018-11-07T02:41:01.877Z,0
2018-11-07T02:41:42.486Z,0
2018-11-07T02:42:23.082Z,0
2018-11-07T02:43:03.638Z,0
2018-11-07T02:43:44.202Z,0
2018-11-07T02:44:24.757Z,0
2018-11-07T02:45:05.312Z,0
2018-11-07T02:45:45.880Z,0
2018-11-07T02:46:26.475Z,0
2018-11-07T02:47:07.006Z,0
2018-11-07T02:47:47.589Z,0
2018-11-07T02:48:28.134Z,0
2018-11-07T02:49:08.696Z,0
2018-11-07T02:49:49.247Z,0
2018-11-07T02:50:29.815Z,0
2018-11-07T02:51:10.453Z,0
2018-11-07T02:51:51.012Z,0
2018-11-07T02:52:31.579Z,0
2018-11-07T02:53:12.152Z,0
2018-11-07T02:53:52.695Z,0
2018-11-07T02:54:33.291Z,0
2018-11-07T02:55:13.835Z,0
2018-11-07T02:55:54.396Z,0
2018-11-07T02:56:34.949Z,0
2018-11-07T02:57:15.523Z,0
2018-11-07T02:57:56.077Z,0
2018-11-07T02:58:36.679Z,0
2018-11-07T02:59:17.229Z,0
2018-11-07T02:59:57.795Z,0
2018-11-07T03:00:38.345Z,0
2018-11-07T03:01:18.966Z,0
2018-11-07T03:01:59.476Z,0
2018-11-07T03:02:40.037Z,0
2018-11-07T03:03:20.624Z,0
2018-11-07T03:04:01.177Z,0
2018-11-07T03:04:41.727Z,0
2018-11-07T03:05:22.286Z,0
2018-11-07T03:06:02.876Z,0
2018-11-07T03:06:43.423Z,0
2018-11-07T03:07:24.011Z,0
2018-11-07T03:08:04.572Z,0
2018-11-07T03:08:45.155Z,0
2018-11-07T03:09:25.704Z,0
2018-11-07T03:10:06.307Z,0
2018-11-07T03:10:46.876Z,0
2018-11-07T03:11:27.366Z,0
2018-11-07T03:12:07.942Z,0
2018-11-07T03:12:48.503Z,0
2018-11-07T03:13:29.099Z,0
2018-11-07T03:14:09.662Z,0
2018-11-07T03:14:50.212Z,0
2018-11-07T03:15:30.774Z,0
2018-11-07T03:16:11.350Z,0
2018-11-07T03:16:51.904Z,0
2018-11-07T03:17:32.455Z,0
2018-11-07T03:18:13.015Z,0
2018-11-07T03:18:53.616Z,0
2018-11-07T03:19:34.156Z,0
2018-11-07T03:20:14.728Z,0
2018-11-07T03:20:55.300Z,0
2018-11-07T03:21:35.864Z,0
2018-11-07T03:22:16.437Z,0
2018-11-07T03:22:57.031Z,0
2018-11-07T03:23:37.571Z,0
2018-11-07T03:24:18.217Z,0
2018-11-07T03:24:58.776Z,0
2018-11-07T03:25:39.331Z,0
2018-11-07T03:26:19.885Z,0
2018-11-07T03:27:00.451Z,0
2018-11-07T03:27:41.037Z,0
2018-11-07T03:28:21.601Z,0
2018-11-07T03:29:02.174Z,0
2018-11-07T03:29:42.745Z,0
2018-11-07T03:30:23.287Z,0
2018-11-07T03:31:03.902Z,0
2018-11-07T03:31:44.457Z,0
2018-11-07T03:32:25.126Z,0
2018-11-07T03:33:05.659Z,0
2018-11-07T03:33:46.238Z,0
2018-11-07T03:34:26.796Z,0
2018-11-07T03:35:07.372Z,0
2018-11-07T03:35:47.953Z,0
2018-11-07T03:36:28.577Z,0
2018-11-07T03:37:09.161Z,0
2018-11-07T03:37:49.739Z,0
2018-11-07T03:38:30.296Z,0
2018-11-07T03:39:10.857Z,0
2018-11-07T03:39:51.520Z,0
2018-11-07T03:40:31.969Z,0
2018-11-07T03:41:12.524Z,0
2018-11-07T03:41:53.080Z,0
2018-11-07T03:42:33.640Z,0
2018-11-07T03:43:14.211Z,0
2018-11-07T03:43:54.780Z,0
2018-11-07T03:44:35.346Z,0
2018-11-07T03:45:15.906Z,0
2018-11-07T03:45:56.468Z,0
2018-11-07T03:46:37.062Z,0
2018-11-07T03:47:17.651Z,0
2018-11-07T03:47:58.211Z,0
2018-11-07T03:48:38.770Z,0
2018-11-07T03:49:19.349Z,0
2018-11-07T03:49:59.918Z,0
2018-11-07T03:50:40.500Z,0
2018-11-07T03:51:21.057Z,0
2018-11-07T03:52:01.613Z,0
2018-11-07T03:52:42.223Z,0
2018-11-07T03:53:22.898Z,0
2018-11-07T03:54:03.332Z,0
2018-11-07T03:54:43.929Z,0
2018-11-07T03:55:24.588Z,0
2018-11-07T03:56:05.142Z,0
2018-11-07T03:56:45.725Z,0
2018-11-07T03:57:26.273Z,0
2018-11-07T03:58:06.880Z,0
2018-11-07T03:58:47.396Z,0
2018-11-07T03:59:28.044Z,0
2018-11-07T04:00:08.597Z,0
2018-11-07T04:00:49.213Z,0
2018-11-07T04:01:29.787Z,0
2018-11-07T04:02:10.381Z,0
2018-11-07T04:02:50.987Z,0
2018-11-07T04:03:31.566Z,0
2018-11-07T04:04:12.185Z,0
2018-11-07T04:04:52.730Z,0
2018-11-07T04:05:33.292Z,0
2018-11-07T04:06:13.862Z,0
2018-11-07T04:06:54.428Z,0
2018-11-07T04:07:35.000Z,0
2018-11-07T04:08:15.566Z,0
2018-11-07T04:08:56.178Z,0
2018-11-07T04:09:36.725Z,0
2018-11-07T04:10:17.340Z,0
2018-11-07T04:10:57.913Z,0
2018-11-07T04:11:38.480Z,0
2018-11-07T04:12:19.055Z,0
2018-11-07T04:12:59.609Z,0
2018-11-07T04:13:40.183Z,0
2018-11-07T04:14:20.739Z,0
2018-11-07T04:15:01.317Z,0
2018-11-07T04:15:41.893Z,0
2018-11-07T04:16:22.446Z,0
2018-11-07T04:17:02.991Z,0
2018-11-07T04:17:43.555Z,0
2018-11-07T04:18:24.127Z,0
2018-11-07T04:19:04.696Z,0
2018-11-07T04:19:45.278Z,0
2018-11-07T04:20:25.831Z,0
2018-11-07T04:21:06.395Z,0
2018-11-07T04:21:46.991Z,0
2018-11-07T04:22:27.612Z,0
2018-11-07T04:23:08.105Z,0
2018-11-07T04:23:48.660Z,0
2018-11-07T04:24:29.271Z,0
2018-11-07T04:25:09.827Z,0
2018-11-07T04:25:50.380Z,0
2018-11-07T04:26:30.962Z,0
2018-11-07T04:27:11.534Z,0
2018-11-07T04:27:52.116Z,0
2018-11-07T04:28:32.675Z,0
2018-11-07T04:29:13.285Z,0
2018-11-07T04:29:53.857Z,0
2018-11-07T04:30:34.427Z,0
2018-11-07T04:31:14.998Z,0
2018-11-07T04:31:55.553Z,0
2018-11-07T04:32:36.140Z,0
2018-11-07T04:33:16.709Z,0
2018-11-07T04:33:57.264Z,0
2018-11-07T04:34:37.833Z,0
2018-11-07T04:35:18.380Z,0
2018-11-07T04:35:58.943Z,0
2018-11-07T04:36:39.502Z,0
2018-11-07T04:37:20.057Z,0
2018-11-07T04:38:00.610Z,0
2018-11-07T04:38:41.182Z,0
2018-11-07T04:39:21.731Z,0
2018-11-07T04:40:02.305Z,0
2018-11-07T04:40:42.876Z,0
2018-11-07T04:41:23.429Z,0
2018-11-07T04:42:03.976Z,0
2018-11-07T04:42:44.552Z,0
2018-11-07T04:43:25.127Z,0
2018-11-07T04:44:05.696Z,0
2018-11-07T04:44:46.260Z,0
2018-11-07T04:45:26.814Z,0
2018-11-07T04:46:07.389Z,0
2018-11-07T04:46:47.946Z,0
2018-11-07T04:47:28.507Z,0
2018-11-07T04:48:09.065Z,0
2018-11-07T04:48:49.618Z,0
2018-11-07T04:49:30.219Z,0
2018-11-07T04:50:10.790Z,0
2018-11-07T04:50:51.355Z,0
2018-11-07T04:51:31.921Z,0
2018-11-07T04:52:12.472Z,0
2018-11-07T04:52:53.026Z,0
2018-11-07T04:53:33.568Z,0
2018-11-07T04:54:14.125Z,0
2018-11-07T04:54:54.697Z,0
2018-11-07T04:55:35.254Z,0
2018-11-07T04:56:15.822Z,0
2018-11-07T04:56:56.379Z,0
2018-11-07T04:57:36.952Z,0
2018-11-07T04:58:17.496Z,0
2018-11-07T04:58:58.062Z,0
2018-11-07T04:59:38.605Z,0
2018-11-07T05:00:19.287Z,0
2018-11-07T05:00:59.758Z,0
2018-11-07T05:01:40.310Z,0
2018-11-07T05:02:20.877Z,0
2018-11-07T05:03:01.445Z,0
2018-11-07T05:03:42.018Z,0
2018-11-07T05:04:22.587Z,0
2018-11-07T05:05:03.149Z,0
2018-11-07T05:05:43.728Z,0
2018-11-07T05:06:24.311Z,0
2018-11-07T05:07:04.874Z,0
2018-11-07T05:07:45.446Z,0
2018-11-07T05:08:26.041Z,0
2018-11-07T05:09:06.550Z,0
2018-11-07T05:09:47.093Z,0
2018-11-07T05:10:27.671Z,0
2018-11-07T05:11:08.241Z,0
2018-11-07T05:11:48.803Z,0
2018-11-07T05:12:29.388Z,0
2018-11-07T05:13:09.937Z,0
2018-11-07T05:13:50.509Z,0
2018-11-07T05:14:31.129Z,0
2018-11-07T05:15:11.772Z,0
2018-11-07T05:15:52.367Z,0
2018-11-07T05:16:33.035Z,0
2018-11-07T05:17:13.641Z,0
2018-11-07T05:17:54.274Z,0
2018-11-07T05:18:34.826Z,0
2018-11-07T05:19:15.452Z,0
2018-11-07T05:19:55.948Z,0
2018-11-07T05:20:36.540Z,0
2018-11-07T05:21:17.109Z,0
2018-11-07T05:21:57.675Z,0
2018-11-07T05:22:38.249Z,0
2018-11-07T05:23:18.821Z,0
2018-11-07T05:23:59.413Z,0
2018-11-07T05:24:39.970Z,0
2018-11-07T05:25:20.539Z,0
2018-11-07T05:26:01.153Z,0
2018-11-07T05:26:41.661Z,0
2018-11-07T05:27:22.230Z,0
2018-11-07T05:28:02.785Z,0
2018-11-07T05:28:43.378Z,0
2018-11-07T05:29:23.913Z,0
2018-11-07T05:30:04.497Z,0
2018-11-07T05:30:45.069Z,0
2018-11-07T05:31:25.674Z,0
2018-11-07T05:32:06.283Z,0
2018-11-07T05:32:46.803Z,0
2018-11-07T05:33:27.369Z,0
2018-11-07T05:34:07.940Z,0
2018-11-07T05:34:48.511Z,0
2018-11-07T05:35:29.069Z,0
2018-11-07T05:36:09.628Z,4
2018-11-07T05:36:50.195Z,4
2018-11-07T05:37:30.758Z,0
2018-11-07T05:38:11.310Z,0
2018-11-07T05:38:51.863Z,0
2018-11-07T05:39:32.473Z,4
2018-11-07T05:40:13.025Z,4
2018-11-07T05:40:53.637Z,0
2018-11-07T05:41:34.151Z,4
2018-11-07T05:42:14.801Z,4
2018-11-07T05:42:55.309Z,4
2018-11-07T05:43:36.237Z,4
2018-11-07T05:44:16.820Z,4
2018-11-07T05:44:57.438Z,4
2018-11-07T05:45:38.001Z,8
2018-11-07T05:46:18.569Z,8
2018-11-07T05:46:59.133Z,4
2018-11-07T05:47:39.697Z,8
2018-11-07T05:48:20.272Z,12
2018-11-07T05:49:00.891Z,12
2018-11-07T05:49:41.377Z,12
2018-11-07T05:50:21.947Z,12
2018-11-07T05:51:02.579Z,16
2018-11-07T05:51:43.081Z,16
2018-11-07T05:52:23.630Z,20
2018-11-07T05:53:04.191Z,20
2018-11-07T05:53:44.761Z,24
2018-11-07T05:54:25.367Z,24
2018-11-07T05:55:05.933Z,28
2018-11-07T05:55:46.478Z,32
2018-11-07T05:56:27.030Z,32
2018-11-07T05:57:07.581Z,36
2018-11-07T05:57:48.134Z,40
2018-11-07T05:58:28.720Z,44
2018-11-07T05:59:09.270Z,48
2018-11-07T05:59:49.876Z,48
2018-11-07T06:00:30.448Z,56
2018-11-07T06:01:11.014Z,60
2018-11-07T06:01:51.590Z,64
2018-11-07T06:02:32.154Z,68
2018-11-07T06:03:12.716Z,76
2018-11-07T06:03:53.281Z,80
2018-11-07T06:04:33.835Z,88
2018-11-07T06:05:14.438Z,92
2018-11-07T06:05:54.992Z,96
2018-11-07T06:06:35.540Z,104
2018-11-07T06:07:16.119Z,108
2018-11-07T06:07:56.664Z,116
2018-11-07T06:08:37.219Z,124
2018-11-07T06:09:17.777Z,132
2018-11-07T06:09:58.372Z,140
2018-11-07T06:10:38.896Z,148
2018-11-07T06:11:19.444Z,156
2018-11-07T06:12:00.039Z,164
2018-11-07T06:12:40.634Z,176
2018-11-07T06:13:21.199Z,184
2018-11-07T06:14:01.772Z,192
2018-11-07T06:14:42.327Z,204
2018-11-07T06:15:22.889Z,216
2018-11-07T06:16:03.503Z,224
2018-11-07T06:16:44.052Z,236
2018-11-07T06:17:24.637Z,244
2018-11-07T06:18:05.193Z,256
2018-11-07T06:18:45.755Z,272
2018-11-07T06:19:26.319Z,280
2018-11-07T06:20:06.892Z,296
2018-11-07T06:20:47.478Z,312
2018-11-07T06:21:28.139Z,324
2018-11-07T06:22:08.694Z,340
2018-11-07T06:22:49.277Z,352
2018-11-07T06:23:29.838Z,368
2018-11-07T06:24:10.421Z,380
2018-11-07T06:24:51.112Z,396
2018-11-07T06:25:31.833Z,412
2018-11-07T06:26:12.424Z,428
2018-11-07T06:26:53.004Z,444
2018-11-07T06:27:33.557Z,464
2018-11-07T06:28:14.121Z,480
2018-11-07T06:28:54.762Z,504
2018-11-07T06:29:35.363Z,520
2018-11-07T06:30:15.915Z,536
2018-11-07T06:30:56.494Z,556
2018-11-07T06:31:37.047Z,580
2018-11-07T06:32:17.719Z,604
2018-11-07T06:32:58.202Z,628
2018-11-07T06:33:38.776Z,656
2018-11-07T06:34:19.402Z,676
2018-11-07T06:34:59.979Z,696
2018-11-07T06:35:40.570Z,720
2018-11-07T06:36:21.288Z,744
2018-11-07T06:37:01.854Z,768
2018-11-07T06:37:42.523Z,792
2018-11-07T06:38:23.094Z,816
2018-11-07T06:39:03.683Z,836
2018-11-07T06:39:44.341Z,860
2018-11-07T06:40:25.077Z,880
2018-11-07T06:41:05.803Z,900
2018-11-07T06:41:46.359Z,920
2018-11-07T06:42:26.939Z,948
2018-11-07T06:43:08.021Z,972
2018-11-07T06:43:48.527Z,992
2018-11-07T06:44:29.325Z,1028
2018-11-07T06:45:09.950Z,1048
2018-11-07T06:45:50.686Z,1076
2018-11-07T06:46:31.243Z,1104
2018-11-07T06:47:11.841Z,1124
2018-11-07T06:47:52.512Z,1144
2018-11-07T06:48:33.087Z,1160
2018-11-07T06:49:13.646Z,1172
2018-11-07T06:49:54.209Z,1112
2018-11-07T06:50:35.842Z,1004
2018-11-07T06:51:15.647Z,1032
2018-11-07T06:51:56.231Z,1164
2018-11-07T06:52:36.797Z,1252
2018-11-07T06:53:17.554Z,1328
2018-11-07T06:53:58.109Z,1368
2018-11-07T06:54:38.671Z,1408
2018-11-07T06:55:19.251Z,1432
2018-11-07T06:55:59.767Z,1448
2018-11-07T06:56:40.384Z,1448
2018-11-07T06:57:20.991Z,1416
2018-11-07T06:58:01.561Z,1448
2018-11-07T06:58:42.241Z,1516
2018-11-07T06:59:22.856Z,1568
2018-11-07T07:00:03.456Z,1628
2018-11-07T07:00:43.999Z,1660
2018-11-07T07:01:24.629Z,1684
2018-11-07T07:02:05.268Z,1716
2018-11-07T07:02:45.858Z,1752
2018-11-07T07:03:26.415Z,1776
2018-11-07T07:04:06.977Z,1800
2018-11-07T07:04:47.529Z,1832
2018-11-07T07:05:28.078Z,1856
2018-11-07T07:06:08.632Z,1872
2018-11-07T07:06:49.214Z,1904
2018-11-07T07:07:29.814Z,1924
2018-11-07T07:08:10.925Z,1960
2018-11-07T07:08:51.513Z,1976
2018-11-07T07:09:32.124Z,2016
2018-11-07T07:10:13.315Z,2040
2018-11-07T07:10:54.143Z,2076
2018-11-07T07:11:34.802Z,2096
2018-11-07T07:12:15.397Z,2116
2018-11-07T07:12:56.253Z,2148
2018-11-07T07:13:36.826Z,2172
2018-11-07T07:14:17.415Z,2192
2018-11-07T07:14:57.979Z,2208
2018-11-07T07:15:39.438Z,2248
2018-11-07T07:16:20.272Z,2256
2018-11-07T07:17:00.969Z,2216
2018-11-07T07:17:42.441Z,2248
2018-11-07T07:18:24.305Z,2328
2018-11-07T07:19:04.956Z,2372
2018-11-07T07:19:45.517Z,2412
2018-11-07T07:20:26.059Z,2440
2018-11-07T07:21:06.680Z,2468
2018-11-07T07:21:47.221Z,2500
2018-11-07T07:22:27.773Z,2524
2018-11-07T07:23:08.335Z,2544
2018-11-07T07:23:48.900Z,2564
2018-11-07T07:24:29.455Z,2576
2018-11-07T07:25:10.021Z,2596
2018-11-07T07:25:50.599Z,2612
2018-11-07T07:26:31.161Z,2640
2018-11-07T07:27:11.717Z,2676
2018-11-07T07:27:52.313Z,2704
2018-11-07T07:28:33.270Z,2720
2018-11-07T07:29:14.127Z,2732
2018-11-07T07:29:54.754Z,2756
2018-11-07T07:30:35.384Z,2780
2018-11-07T07:31:15.913Z,2816
2018-11-07T07:31:56.971Z,2828
2018-11-07T07:32:37.357Z,2864
2018-11-07T07:33:18.087Z,2884
2018-11-07T07:33:58.569Z,2900
2018-11-07T07:34:39.202Z,2916
2018-11-07T07:35:19.763Z,2940
2018-11-07T07:36:00.320Z,2956
2018-11-07T07:36:41.625Z,2988
2018-11-07T07:37:22.708Z,3000
2018-11-07T07:38:03.398Z,3020
2018-11-07T07:38:44.159Z,3048
2018-11-07T07:39:24.975Z,3088
2018-11-07T07:40:05.998Z,3132
2018-11-07T07:40:46.540Z,3160
2018-11-07T07:41:27.428Z,3180
2018-11-07T07:42:08.386Z,3192
2018-11-07T07:42:48.955Z,3212
2018-11-07T07:43:29.502Z,3240
2018-11-07T07:44:10.067Z,3244
2018-11-07T07:44:50.655Z,3276
2018-11-07T07:45:31.263Z,3316
2018-11-07T07:46:11.868Z,3340
2018-11-07T07:46:52.457Z,3344
2018-11-07T07:47:33.017Z,3328
2018-11-07T07:48:13.621Z,3312
2018-11-07T07:48:54.172Z,3312
2018-11-07T07:49:34.723Z,3360
2018-11-07T07:50:15.278Z,3396
2018-11-07T07:50:55.964Z,3436
2018-11-07T07:51:36.566Z,3436
2018-11-07T07:52:17.080Z,3436
2018-11-07T07:52:57.961Z,3440
2018-11-07T07:53:38.566Z,3444
2018-11-07T07:54:19.142Z,3456
2018-11-07T07:54:59.686Z,3492
2018-11-07T07:55:40.241Z,3520
2018-11-07T07:56:20.951Z,3556
2018-11-07T07:57:01.650Z,3572
2018-11-07T07:57:42.384Z,3584
2018-11-07T07:58:22.930Z,3624
2018-11-07T07:59:03.485Z,3632
2018-11-07T07:59:44.080Z,3660
2018-11-07T08:00:24.633Z,3728
2018-11-07T08:01:05.313Z,3776
2018-11-07T08:01:45.874Z,3832
2018-11-07T08:02:26.445Z,3904
2018-11-07T08:03:06.974Z,3980
2018-11-07T08:03:47.532Z,4280
2018-11-07T08:04:28.082Z,5556
2018-11-07T08:05:08.685Z,8296
2018-11-07T08:05:49.246Z,13900
2018-11-07T08:06:29.815Z,21408
2018-11-07T08:07:10.371Z,27136
2018-11-07T08:07:50.940Z,28704
2018-11-07T08:08:31.524Z,28256
2018-11-07T08:09:12.081Z,26976
2018-11-07T08:09:52.677Z,25312
2018-11-07T08:10:33.224Z,23968
2018-11-07T08:11:13.786Z,23712
2018-11-07T08:11:54.350Z,26400
2018-11-07T08:12:34.912Z,26240
2018-11-07T08:13:15.552Z,24032
2018-11-07T08:13:56.069Z,19968
2018-11-07T08:14:36.600Z,16000
2018-11-07T08:15:17.159Z,13012
2018-11-07T08:15:57.711Z,12836
2018-11-07T08:16:38.287Z,14688
2018-11-07T08:17:18.893Z,18048
2018-11-07T08:17:59.452Z,22944
2018-11-07T08:18:40.064Z,26240
2018-11-07T08:19:20.633Z,26976
2018-11-07T08:20:01.216Z,27872
2018-11-07T08:20:41.781Z,28992
2018-11-07T08:21:22.464Z,30784
2018-11-07T08:22:02.925Z,32320
2018-11-07T08:22:43.444Z,32512
2018-11-07T08:23:24.036Z,29120
2018-11-07T08:24:04.631Z,24160
2018-11-07T08:24:45.229Z,23072
2018-11-07T08:25:26.238Z,26080
2018-11-07T08:26:06.688Z,29280
2018-11-07T08:26:47.248Z,32832
2018-11-07T08:27:27.817Z,32192
2018-11-07T08:28:08.691Z,32544
2018-11-07T08:28:49.365Z,32896
2018-11-07T08:29:30.093Z,35168
2018-11-07T08:30:10.894Z,33792
2018-11-07T08:30:51.519Z,33184
2018-11-07T08:31:32.062Z,33888
2018-11-07T08:32:12.703Z,32640
2018-11-07T08:32:53.261Z,30336
2018-11-07T08:33:33.844Z,26368
2018-11-07T08:34:14.435Z,24320
2018-11-07T08:34:55.214Z,24448
2018-11-07T08:35:35.799Z,27744
2018-11-07T08:36:16.493Z,27776
2018-11-07T08:36:57.057Z,24768
2018-11-07T08:37:37.624Z,21536
2018-11-07T08:38:18.183Z,17696
2018-11-07T08:38:58.760Z,15136
2018-11-07T08:39:39.334Z,13580
2018-11-07T08:40:19.895Z,13036
2018-11-07T08:41:00.485Z,14976
2018-11-07T08:41:41.044Z,17120
2018-11-07T08:42:21.754Z,19648
2018-11-07T08:43:02.243Z,19168
2018-11-07T08:43:42.853Z,16768
2018-11-07T08:44:23.420Z,16032
2018-11-07T08:45:03.979Z,16736
2018-11-07T08:45:44.539Z,16928
2018-11-07T08:46:25.118Z,17952
2018-11-07T08:47:05.675Z,23104
2018-11-07T08:47:46.247Z,26528
2018-11-07T08:48:26.832Z,28096
2018-11-07T08:49:07.379Z,27968
2018-11-07T08:49:47.939Z,28160
2018-11-07T08:50:28.500Z,28832
2018-11-07T08:51:09.056Z,25664
2018-11-07T08:51:49.597Z,19328
2018-11-07T08:52:30.153Z,17056
2018-11-07T08:53:10.712Z,16128
2018-11-07T08:53:51.282Z,13512
2018-11-07T08:54:31.848Z,10488
2018-11-07T08:55:12.593Z,9216
2018-11-07T08:55:53.114Z,8944
2018-11-07T08:56:33.689Z,10592
2018-11-07T08:57:14.287Z,14752
2018-11-07T08:57:54.836Z,19936
2018-11-07T08:58:35.398Z,18784
2018-11-07T08:59:15.969Z,15744
2018-11-07T08:59:56.545Z,14976
2018-11-07T09:00:37.124Z,16544
2018-11-07T09:01:17.754Z,17152
2018-11-07T09:01:58.317Z,16768
2018-11-07T09:02:38.820Z,15360
2018-11-07T09:03:19.380Z,12592
2018-11-07T09:03:59.940Z,10076
2018-11-07T09:04:40.519Z,8772
2018-11-07T09:05:21.070Z,8696
2018-11-07T09:06:01.649Z,8768
2018-11-07T09:06:42.222Z,8820
2018-11-07T09:07:22.768Z,8604
2018-11-07T09:08:03.314Z,8608
2018-11-07T09:08:43.922Z,8300
2018-11-07T09:09:24.500Z,8556
2018-11-07T09:10:05.071Z,8720
2018-11-07T09:10:45.628Z,8616
2018-11-07T09:11:26.189Z,8172
2018-11-07T09:12:06.855Z,7772
2018-11-07T09:12:47.320Z,7552
2018-11-07T09:13:27.882Z,7296
2018-11-07T09:14:08.443Z,7176
2018-11-07T09:14:49.008Z,6992
2018-11-07T09:15:29.566Z,6828
2018-11-07T09:16:10.214Z,6724
2018-11-07T09:16:50.767Z,6604
2018-11-07T09:17:31.331Z,6580
2018-11-07T09:18:11.929Z,6372
2018-11-07T09:18:52.516Z,6284
2018-11-07T09:19:33.075Z,6212
2018-11-07T09:20:13.623Z,6112
2018-11-07T09:20:54.182Z,5900
2018-11-07T09:21:34.750Z,5784
2018-11-07T09:22:15.343Z,5720
2018-11-07T09:22:55.903Z,5704
2018-11-07T09:23:36.458Z,5564
2018-11-07T09:24:17.046Z,5504
2018-11-07T09:24:57.599Z,5444
2018-11-07T09:25:38.153Z,5440
2018-11-07T09:26:18.724Z,5460
2018-11-07T09:26:59.284Z,5444
2018-11-07T09:27:39.879Z,5432
2018-11-07T09:28:20.417Z,5380
2018-11-07T09:29:00.990Z,5324
2018-11-07T09:29:41.550Z,5268
2018-11-07T09:30:22.105Z,5192
2018-11-07T09:31:02.714Z,5192
2018-11-07T09:31:43.298Z,5164
2018-11-07T09:32:23.858Z,5076
2018-11-07T09:33:04.414Z,5052
2018-11-07T09:33:44.957Z,4956
2018-11-07T09:34:25.505Z,4920
2018-11-07T09:35:06.055Z,4924